Search for airport 
image banner adimage banner adimage banner ad
image banner ad

CN13 - Borges - Clarksburg

Located in Clarksburg, United States

ICAO - CN13, IATA -

Data provided by Airmate  

General information

Coordinates: N38°26'36" W121°30'32"
Elevation is 12 feet MSL.
Magnetic variation is 16° East
View others Airports in California

Operational data

Special qualification required
Current time UTC:
Current local time:
Weather at : KSAC - Sacramento Executive ( 8 km )
METAR: KSAC 221353Z 19009KT 10SM CLR 16/12 A2988 RMK AO2 SLP119 T01610122
TAF: KSAC 221123Z 2212/2312 20008KT P6SM SKC FM221700 21011G18KT P6SM SKC FM230600 20008KT P6SM SKC
View NOTAMs / SUP AIP / TFR affecting this airport [VIEW]
Communications frequencies: [VIEW]

Runways:

RWY identifierQFULength (ft)Width (ft)SurfaceLDA (ft)
09226090GRASS
27226090GRASS

Airport contact information

Address: Clarksburg United States

Satellite view of CN13